sensor_id;sensor_type;location;lat;lon;timestamp;P1;durP1;ratioP1;P2;durP2;ratioP2
21243;SDS011;10780;50.942;4.028;2023-05-07T00:01:16;10.15;;;5.60;;
21243;SDS011;10780;50.942;4.028;2023-05-07T00:03:42;7.70;;;5.18;;
21243;SDS011;10780;50.942;4.028;2023-05-07T00:06:07;8.50;;;5.43;;
21243;SDS011;10780;50.942;4.028;2023-05-07T00:08:33;10.88;;;5.63;;
21243;SDS011;10780;50.942;4.028;2023-05-07T00:10:58;9.05;;;6.30;;
21243;SDS011;10780;50.942;4.028;2023-05-07T00:13:24;10.43;;;5.70;;
21243;SDS011;10780;50.942;4.028;2023-05-07T00:15:50;9.18;;;5.88;;
21243;SDS011;10780;50.942;4.028;2023-05-07T00:18:15;11.77;;;6.00;;
21243;SDS011;10780;50.942;4.028;2023-05-07T00:20:41;10.07;;;5.88;;
21243;SDS011;10780;50.942;4.028;2023-05-07T00:23:06;9.60;;;5.85;;
21243;SDS011;10780;50.942;4.028;2023-05-07T00:25:32;12.25;;;5.70;;
21243;SDS011;10780;50.942;4.028;2023-05-07T00:27:58;11.48;;;6.20;;
21243;SDS011;10780;50.942;4.028;2023-05-07T00:30:28;10.93;;;5.95;;
21243;SDS011;10780;50.942;4.028;2023-05-07T00:32:54;13.07;;;6.30;;
21243;SDS011;10780;50.942;4.028;2023-05-07T00:35:20;12.25;;;5.82;;
21243;SDS011;10780;50.942;4.028;2023-05-07T00:37:46;10.55;;;5.97;;
21243;SDS011;10780;50.942;4.028;2023-05-07T00:40:13;12.70;;;6.13;;
21243;SDS011;10780;50.942;4.028;2023-05-07T00:42:39;6.43;;;5.05;;
21243;SDS011;10780;50.942;4.028;2023-05-07T00:45:05;12.65;;;6.75;;
21243;SDS011;10780;50.942;4.028;2023-05-07T00:47:32;9.48;;;5.90;;
21243;SDS011;10780;50.942;4.028;2023-05-07T00:49:58;10.60;;;6.22;;
21243;SDS011;10780;50.942;4.028;2023-05-07T00:52:24;9.10;;;5.85;;
21243;SDS011;10780;50.942;4.028;2023-05-07T00:54:50;9.75;;;5.82;;
21243;SDS011;10780;50.942;4.028;2023-05-07T00:57:17;10.50;;;6.65;;
21243;SDS011;10780;50.942;4.028;2023-05-07T00:59:44;11.82;;;5.40;;
21243;SDS011;10780;50.942;4.028;2023-05-07T01:02:10;15.65;;;7.28;;
21243;SDS011;10780;50.942;4.028;2023-05-07T01:04:36;10.73;;;6.15;;
21243;SDS011;10780;50.942;4.028;2023-05-07T01:07:01;9.25;;;5.95;;
21243;SDS011;10780;50.942;4.028;2023-05-07T01:09:28;11.77;;;5.90;;
21243;SDS011;10780;50.942;4.028;2023-05-07T01:11:54;11.10;;;6.03;;
21243;SDS011;10780;50.942;4.028;2023-05-07T01:14:22;10.02;;;6.10;;
21243;SDS011;10780;50.942;4.028;2023-05-07T01:16:48;9.05;;;6.60;;
21243;SDS011;10780;50.942;4.028;2023-05-07T01:19:16;8.77;;;5.78;;
21243;SDS011;10780;50.942;4.028;2023-05-07T01:21:44;11.68;;;6.65;;
21243;SDS011;10780;50.942;4.028;2023-05-07T01:24:11;9.90;;;6.55;;
21243;SDS011;10780;50.942;4.028;2023-05-07T01:26:39;11.32;;;6.95;;
21243;SDS011;10780;50.942;4.028;2023-05-07T01:29:05;11.60;;;6.63;;
21243;SDS011;10780;50.942;4.028;2023-05-07T01:31:32;11.73;;;6.30;;
21243;SDS011;10780;50.942;4.028;2023-05-07T01:33:59;13.88;;;6.38;;
21243;SDS011;10780;50.942;4.028;2023-05-07T01:36:27;11.90;;;6.78;;
21243;SDS011;10780;50.942;4.028;2023-05-07T01:38:55;11.35;;;7.68;;
21243;SDS011;10780;50.942;4.028;2023-05-07T01:41:22;11.80;;;6.88;;
21243;SDS011;10780;50.942;4.028;2023-05-07T01:43:50;14.00;;;7.03;;
21243;SDS011;10780;50.942;4.028;2023-05-07T01:46:17;12.02;;;7.05;;
21243;SDS011;10780;50.942;4.028;2023-05-07T01:48:43;11.07;;;6.68;;
21243;SDS011;10780;50.942;4.028;2023-05-07T01:51:11;12.52;;;7.15;;
21243;SDS011;10780;50.942;4.028;2023-05-07T01:53:37;15.07;;;7.18;;
21243;SDS011;10780;50.942;4.028;2023-05-07T01:56:03;16.30;;;7.25;;
21243;SDS011;10780;50.942;4.028;2023-05-07T01:58:30;10.15;;;6.88;;
21243;SDS011;10780;50.942;4.028;2023-05-07T02:00:56;10.88;;;7.78;;
21243;SDS011;10780;50.942;4.028;2023-05-07T02:03:21;10.25;;;7.53;;
21243;SDS011;10780;50.942;4.028;2023-05-07T02:05:47;14.63;;;7.45;;
21243;SDS011;10780;50.942;4.028;2023-05-07T02:08:12;15.93;;;7.53;;
21243;SDS011;10780;50.942;4.028;2023-05-07T02:10:38;11.85;;;7.47;;
21243;SDS011;10780;50.942;4.028;2023-05-07T02:13:04;13.95;;;8.13;;
21243;SDS011;10780;50.942;4.028;2023-05-07T02:15:30;18.67;;;7.38;;
21243;SDS011;10780;50.942;4.028;2023-05-07T02:18:13;12.25;;;7.65;;
21243;SDS011;10780;50.942;4.028;2023-05-07T02:20:39;12.45;;;7.20;;
21243;SDS011;10780;50.942;4.028;2023-05-07T02:23:04;13.40;;;7.75;;
21243;SDS011;10780;50.942;4.028;2023-05-07T02:25:30;10.43;;;7.10;;
21243;SDS011;10780;50.942;4.028;2023-05-07T02:27:55;12.18;;;7.57;;
21243;SDS011;10780;50.942;4.028;2023-05-07T02:30:21;15.70;;;8.70;;
21243;SDS011;10780;50.942;4.028;2023-05-07T02:32:47;11.95;;;7.45;;
21243;SDS011;10780;50.942;4.028;2023-05-07T02:35:12;9.35;;;6.95;;
21243;SDS011;10780;50.942;4.028;2023-05-07T02:37:38;10.95;;;7.25;;
21243;SDS011;10780;50.942;4.028;2023-05-07T02:40:04;12.73;;;7.30;;
21243;SDS011;10780;50.942;4.028;2023-05-07T02:42:30;10.65;;;7.15;;
21243;SDS011;10780;50.942;4.028;2023-05-07T02:44:56;14.57;;;7.32;;
21243;SDS011;10780;50.942;4.028;2023-05-07T02:47:21;10.98;;;7.07;;
21243;SDS011;10780;50.942;4.028;2023-05-07T02:49:47;11.73;;;7.45;;
21243;SDS011;10780;50.942;4.028;2023-05-07T02:52:13;17.58;;;7.32;;
21243;SDS011;10780;50.942;4.028;2023-05-07T02:54:38;12.10;;;7.20;;
21243;SDS011;10780;50.942;4.028;2023-05-07T02:57:04;10.77;;;7.38;;
21243;SDS011;10780;50.942;4.028;2023-05-07T02:59:29;10.48;;;6.80;;
21243;SDS011;10780;50.942;4.028;2023-05-07T03:01:55;17.40;;;7.75;;
21243;SDS011;10780;50.942;4.028;2023-05-07T03:04:21;13.43;;;7.32;;
21243;SDS011;10780;50.942;4.028;2023-05-07T03:06:46;12.43;;;6.95;;
21243;SDS011;10780;50.942;4.028;2023-05-07T03:09:12;7.93;;;6.95;;
21243;SDS011;10780;50.942;4.028;2023-05-07T03:11:37;11.45;;;7.40;;
21243;SDS011;10780;50.942;4.028;2023-05-07T03:14:03;14.15;;;7.57;;
21243;SDS011;10780;50.942;4.028;2023-05-07T03:16:28;10.70;;;6.90;;
21243;SDS011;10780;50.942;4.028;2023-05-07T03:18:54;11.77;;;7.57;;
21243;SDS011;10780;50.942;4.028;2023-05-07T03:21:20;13.82;;;7.35;;
21243;SDS011;10780;50.942;4.028;2023-05-07T03:23:46;9.75;;;6.57;;
21243;SDS011;10780;50.942;4.028;2023-05-07T03:26:11;10.05;;;6.75;;
21243;SDS011;10780;50.942;4.028;2023-05-07T03:28:37;11.85;;;7.45;;
21243;SDS011;10780;50.942;4.028;2023-05-07T03:31:02;13.45;;;6.70;;
21243;SDS011;10780;50.942;4.028;2023-05-07T03:33:28;11.27;;;6.80;;
21243;SDS011;10780;50.942;4.028;2023-05-07T03:35:54;12.82;;;7.10;;
21243;SDS011;10780;50.942;4.028;2023-05-07T03:38:19;11.20;;;6.93;;
21243;SDS011;10780;50.942;4.028;2023-05-07T03:40:45;11.45;;;6.75;;
21243;SDS011;10780;50.942;4.028;2023-05-07T03:43:11;9.98;;;7.35;;
21243;SDS011;10780;50.942;4.028;2023-05-07T03:45:36;11.30;;;6.95;;
21243;SDS011;10780;50.942;4.028;2023-05-07T03:48:02;11.13;;;6.63;;
21243;SDS011;10780;50.942;4.028;2023-05-07T03:50:28;13.13;;;7.68;;
21243;SDS011;10780;50.942;4.028;2023-05-07T03:52:53;12.05;;;6.78;;
21243;SDS011;10780;50.942;4.028;2023-05-07T03:55:19;13.13;;;7.38;;
21243;SDS011;10780;50.942;4.028;2023-05-07T03:57:45;12.70;;;6.90;;
21243;SDS011;10780;50.942;4.028;2023-05-07T04:00:10;11.65;;;7.38;;
21243;SDS011;10780;50.942;4.028;2023-05-07T04:02:36;12.05;;;8.10;;
21243;SDS011;10780;50.942;4.028;2023-05-07T04:05:02;11.55;;;6.93;;
21243;SDS011;10780;50.942;4.028;2023-05-07T04:07:28;11.88;;;6.97;;
21243;SDS011;10780;50.942;4.028;2023-05-07T04:09:53;13.63;;;7.57;;
21243;SDS011;10780;50.942;4.028;2023-05-07T04:12:19;9.82;;;7.00;;
21243;SDS011;10780;50.942;4.028;2023-05-07T04:14:45;9.18;;;6.78;;
21243;SDS011;10780;50.942;4.028;2023-05-07T04:17:10;11.95;;;7.72;;
21243;SDS011;10780;50.942;4.028;2023-05-07T04:19:36;12.38;;;7.22;;
21243;SDS011;10780;50.942;4.028;2023-05-07T04:22:01;12.98;;;7.30;;
21243;SDS011;10780;50.942;4.028;2023-05-07T04:24:27;11.43;;;7.00;;
21243;SDS011;10780;50.942;4.028;2023-05-07T04:26:56;13.27;;;7.85;;
21243;SDS011;10780;50.942;4.028;2023-05-07T04:29:21;11.75;;;7.50;;
21243;SDS011;10780;50.942;4.028;2023-05-07T04:31:47;12.40;;;6.55;;
21243;SDS011;10780;50.942;4.028;2023-05-07T04:34:12;12.95;;;7.78;;
21243;SDS011;10780;50.942;4.028;2023-05-07T04:36:39;12.65;;;7.60;;
21243;SDS011;10780;50.942;4.028;2023-05-07T04:39:05;11.63;;;7.18;;
21243;SDS011;10780;50.942;4.028;2023-05-07T04:41:31;9.48;;;6.88;;
21243;SDS011;10780;50.942;4.028;2023-05-07T04:43:57;10.60;;;7.22;;
21243;SDS011;10780;50.942;4.028;2023-05-07T04:46:23;10.70;;;6.70;;
21243;SDS011;10780;50.942;4.028;2023-05-07T04:48:49;13.35;;;7.47;;
21243;SDS011;10780;50.942;4.028;2023-05-07T04:51:15;12.52;;;7.30;;
21243;SDS011;10780;50.942;4.028;2023-05-07T04:53:41;9.15;;;7.32;;
21243;SDS011;10780;50.942;4.028;2023-05-07T04:56:08;11.52;;;7.88;;
21243;SDS011;10780;50.942;4.028;2023-05-07T04:58:33;10.38;;;7.00;;
21243;SDS011;10780;50.942;4.028;2023-05-07T05:00:59;14.60;;;7.10;;
21243;SDS011;10780;50.942;4.028;2023-05-07T05:03:25;9.43;;;7.13;;
21243;SDS011;10780;50.942;4.028;2023-05-07T05:05:51;11.35;;;6.82;;
21243;SDS011;10780;50.942;4.028;2023-05-07T05:08:17;10.80;;;7.18;;
21243;SDS011;10780;50.942;4.028;2023-05-07T05:10:43;10.55;;;7.78;;
21243;SDS011;10780;50.942;4.028;2023-05-07T05:13:09;13.30;;;7.55;;
21243;SDS011;10780;50.942;4.028;2023-05-07T05:15:37;11.82;;;7.40;;
21243;SDS011;10780;50.942;4.028;2023-05-07T05:18:03;13.55;;;8.13;;
21243;SDS011;10780;50.942;4.028;2023-05-07T05:20:29;10.95;;;7.07;;
21243;SDS011;10780;50.942;4.028;2023-05-07T05:22:55;8.77;;;6.80;;
21243;SDS011;10780;50.942;4.028;2023-05-07T05:25:20;13.13;;;7.38;;
21243;SDS011;10780;50.942;4.028;2023-05-07T05:27:46;10.63;;;7.10;;
21243;SDS011;10780;50.942;4.028;2023-05-07T05:30:12;14.23;;;8.10;;
21243;SDS011;10780;50.942;4.028;2023-05-07T05:32:38;12.70;;;8.13;;
21243;SDS011;10780;50.942;4.028;2023-05-07T05:35:03;11.43;;;8.27;;
21243;SDS011;10780;50.942;4.028;2023-05-07T05:37:29;9.60;;;7.45;;
21243;SDS011;10780;50.942;4.028;2023-05-07T05:39:56;10.40;;;7.60;;
21243;SDS011;10780;50.942;4.028;2023-05-07T05:42:22;12.38;;;7.80;;
21243;SDS011;10780;50.942;4.028;2023-05-07T05:44:48;12.23;;;8.38;;
21243;SDS011;10780;50.942;4.028;2023-05-07T05:47:13;14.25;;;7.60;;
21243;SDS011;10780;50.942;4.028;2023-05-07T05:49:39;12.55;;;7.47;;
21243;SDS011;10780;50.942;4.028;2023-05-07T05:52:05;13.88;;;7.68;;
21243;SDS011;10780;50.942;4.028;2023-05-07T05:54:30;13.50;;;8.38;;
21243;SDS011;10780;50.942;4.028;2023-05-07T05:56:56;10.95;;;7.25;;
21243;SDS011;10780;50.942;4.028;2023-05-07T05:59:22;13.35;;;7.65;;
21243;SDS011;10780;50.942;4.028;2023-05-07T06:01:48;11.65;;;7.60;;
21243;SDS011;10780;50.942;4.028;2023-05-07T06:04:13;13.93;;;8.10;;
21243;SDS011;10780;50.942;4.028;2023-05-07T06:06:39;14.23;;;8.68;;
21243;SDS011;10780;50.942;4.028;2023-05-07T06:09:05;12.32;;;7.00;;
21243;SDS011;10780;50.942;4.028;2023-05-07T06:11:31;12.13;;;6.85;;
21243;SDS011;10780;50.942;4.028;2023-05-07T06:13:57;11.55;;;7.55;;
21243;SDS011;10780;50.942;4.028;2023-05-07T06:16:24;12.48;;;6.68;;
21243;SDS011;10780;50.942;4.028;2023-05-07T06:18:50;11.80;;;6.85;;
21243;SDS011;10780;50.942;4.028;2023-05-07T06:21:15;11.23;;;6.65;;
21243;SDS011;10780;50.942;4.028;2023-05-07T06:23:41;11.27;;;6.85;;
21243;SDS011;10780;50.942;4.028;2023-05-07T06:26:07;11.25;;;6.30;;
21243;SDS011;10780;50.942;4.028;2023-05-07T06:28:32;7.68;;;5.40;;
21243;SDS011;10780;50.942;4.028;2023-05-07T06:31:16;10.82;;;6.40;;
21243;SDS011;10780;50.942;4.028;2023-05-07T06:33:46;12.68;;;7.55;;
21243;SDS011;10780;50.942;4.028;2023-05-07T06:36:13;12.15;;;7.15;;
21243;SDS011;10780;50.942;4.028;2023-05-07T06:38:38;10.02;;;6.68;;
21243;SDS011;10780;50.942;4.028;2023-05-07T06:41:05;12.55;;;6.60;;
21243;SDS011;10780;50.942;4.028;2023-05-07T06:43:31;12.82;;;6.65;;
21243;SDS011;10780;50.942;4.028;2023-05-07T06:45:57;10.43;;;6.78;;
21243;SDS011;10780;50.942;4.028;2023-05-07T06:48:22;12.35;;;6.82;;
21243;SDS011;10780;50.942;4.028;2023-05-07T06:50:48;9.25;;;5.70;;
21243;SDS011;10780;50.942;4.028;2023-05-07T06:53:14;10.35;;;6.63;;
21243;SDS011;10780;50.942;4.028;2023-05-07T06:55:39;11.05;;;6.85;;
21243;SDS011;10780;50.942;4.028;2023-05-07T06:58:06;8.48;;;6.10;;
21243;SDS011;10780;50.942;4.028;2023-05-07T07:00:32;13.00;;;6.53;;
21243;SDS011;10780;50.942;4.028;2023-05-07T07:02:57;9.70;;;5.68;;
21243;SDS011;10780;50.942;4.028;2023-05-07T07:05:24;9.55;;;5.57;;
21243;SDS011;10780;50.942;4.028;2023-05-07T07:07:50;9.23;;;5.30;;
21243;SDS011;10780;50.942;4.028;2023-05-07T07:10:21;11.18;;;5.15;;
21243;SDS011;10780;50.942;4.028;2023-05-07T07:12:47;8.70;;;5.32;;
21243;SDS011;10780;50.942;4.028;2023-05-07T07:15:13;8.18;;;4.97;;
21243;SDS011;10780;50.942;4.028;2023-05-07T07:17:40;8.60;;;4.97;;
21243;SDS011;10780;50.942;4.028;2023-05-07T07:20:06;6.85;;;4.55;;
21243;SDS011;10780;50.942;4.028;2023-05-07T07:22:32;6.75;;;5.07;;
21243;SDS011;10780;50.942;4.028;2023-05-07T07:24:57;9.02;;;5.28;;
21243;SDS011;10780;50.942;4.028;2023-05-07T07:27:23;8.70;;;4.90;;
21243;SDS011;10780;50.942;4.028;2023-05-07T07:29:49;7.95;;;4.53;;
21243;SDS011;10780;50.942;4.028;2023-05-07T07:32:15;7.13;;;5.65;;
21243;SDS011;10780;50.942;4.028;2023-05-07T07:34:40;7.90;;;4.57;;
21243;SDS011;10780;50.942;4.028;2023-05-07T07:37:06;7.18;;;4.72;;
21243;SDS011;10780;50.942;4.028;2023-05-07T07:39:32;5.93;;;4.28;;
21243;SDS011;10780;50.942;4.028;2023-05-07T07:41:58;7.55;;;4.95;;
21243;SDS011;10780;50.942;4.028;2023-05-07T07:44:23;9.23;;;4.93;;
21243;SDS011;10780;50.942;4.028;2023-05-07T07:46:49;7.82;;;4.57;;
21243;SDS011;10780;50.942;4.028;2023-05-07T07:49:15;8.52;;;5.20;;
21243;SDS011;10780;50.942;4.028;2023-05-07T07:51:41;9.45;;;6.00;;
21243;SDS011;10780;50.942;4.028;2023-05-07T07:54:07;9.50;;;6.25;;
21243;SDS011;10780;50.942;4.028;2023-05-07T07:56:32;7.63;;;5.10;;
21243;SDS011;10780;50.942;4.028;2023-05-07T07:59:01;9.82;;;5.18;;
21243;SDS011;10780;50.942;4.028;2023-05-07T08:01:29;10.40;;;5.57;;
21243;SDS011;10780;50.942;4.028;2023-05-07T08:03:55;10.27;;;6.50;;
21243;SDS011;10780;50.942;4.028;2023-05-07T08:06:22;9.77;;;5.57;;
21243;SDS011;10780;50.942;4.028;2023-05-07T08:08:48;20.33;;;10.38;;
21243;SDS011;10780;50.942;4.028;2023-05-07T08:11:14;13.93;;;7.80;;
21243;SDS011;10780;50.942;4.028;2023-05-07T08:13:39;12.65;;;6.93;;
21243;SDS011;10780;50.942;4.028;2023-05-07T08:16:05;10.55;;;6.07;;
21243;SDS011;10780;50.942;4.028;2023-05-07T08:18:31;9.65;;;6.40;;
21243;SDS011;10780;50.942;4.028;2023-05-07T08:20:56;17.13;;;9.20;;
21243;SDS011;10780;50.942;4.028;2023-05-07T08:23:22;25.23;;;12.38;;
21243;SDS011;10780;50.942;4.028;2023-05-07T08:25:48;17.10;;;10.60;;
21243;SDS011;10780;50.942;4.028;2023-05-07T08:28:14;24.63;;;11.93;;
21243;SDS011;10780;50.942;4.028;2023-05-07T08:30:40;35.78;;;18.52;;
21243;SDS011;10780;50.942;4.028;2023-05-07T08:33:06;29.05;;;15.43;;
21243;SDS011;10780;50.942;4.028;2023-05-07T08:35:33;14.02;;;8.63;;
21243;SDS011;10780;50.942;4.028;2023-05-07T08:37:59;10.85;;;6.88;;
21243;SDS011;10780;50.942;4.028;2023-05-07T08:40:24;11.00;;;6.43;;
21243;SDS011;10780;50.942;4.028;2023-05-07T08:42:52;8.98;;;5.35;;
21243;SDS011;10780;50.942;4.028;2023-05-07T08:45:18;10.77;;;5.90;;
21243;SDS011;10780;50.942;4.028;2023-05-07T08:47:54;7.70;;;5.40;;
21243;SDS011;10780;50.942;4.028;2023-05-07T08:50:26;7.53;;;6.15;;
21243;SDS011;10780;50.942;4.028;2023-05-07T08:52:54;9.25;;;6.40;;
21243;SDS011;10780;50.942;4.028;2023-05-07T08:55:22;7.20;;;5.28;;
21243;SDS011;10780;50.942;4.028;2023-05-07T08:57:48;8.77;;;5.50;;
21243;SDS011;10780;50.942;4.028;2023-05-07T09:00:13;8.50;;;5.78;;
21243;SDS011;10780;50.942;4.028;2023-05-07T09:02:40;10.73;;;6.72;;
21243;SDS011;10780;50.942;4.028;2023-05-07T09:05:05;7.13;;;5.57;;
21243;SDS011;10780;50.942;4.028;2023-05-07T09:07:31;10.85;;;5.93;;
21243;SDS011;10780;50.942;4.028;2023-05-07T09:09:57;9.75;;;6.18;;
21243;SDS011;10780;50.942;4.028;2023-05-07T09:12:24;7.43;;;5.60;;
21243;SDS011;10780;50.942;4.028;2023-05-07T09:14:49;8.48;;;5.50;;
21243;SDS011;10780;50.942;4.028;2023-05-07T09:17:15;9.82;;;5.15;;
21243;SDS011;10780;50.942;4.028;2023-05-07T09:19:42;9.48;;;5.40;;
21243;SDS011;10780;50.942;4.028;2023-05-07T09:22:11;6.68;;;4.70;;
21243;SDS011;10780;50.942;4.028;2023-05-07T09:24:38;5.80;;;3.38;;
21243;SDS011;10780;50.942;4.028;2023-05-07T09:27:04;8.38;;;4.18;;
21243;SDS011;10780;50.942;4.028;2023-05-07T09:29:30;6.95;;;3.78;;
21243;SDS011;10780;50.942;4.028;2023-05-07T09:32:03;5.88;;;3.65;;
21243;SDS011;10780;50.942;4.028;2023-05-07T09:34:30;7.97;;;3.60;;
21243;SDS011;10780;50.942;4.028;2023-05-07T09:36:56;7.35;;;3.90;;
21243;SDS011;10780;50.942;4.028;2023-05-07T09:39:23;8.70;;;3.75;;
21243;SDS011;10780;50.942;4.028;2023-05-07T09:41:50;5.28;;;3.72;;
21243;SDS011;10780;50.942;4.028;2023-05-07T09:44:19;5.60;;;3.90;;
21243;SDS011;10780;50.942;4.028;2023-05-07T09:46:45;5.78;;;3.33;;
21243;SDS011;10780;50.942;4.028;2023-05-07T09:49:20;5.78;;;3.03;;
21243;SDS011;10780;50.942;4.028;2023-05-07T09:51:48;4.60;;;2.42;;
21243;SDS011;10780;50.942;4.028;2023-05-07T09:54:15;7.07;;;3.00;;
21243;SDS011;10780;50.942;4.028;2023-05-07T09:56:42;6.57;;;2.90;;
21243;SDS011;10780;50.942;4.028;2023-05-07T09:59:13;4.70;;;2.80;;
21243;SDS011;10780;50.942;4.028;2023-05-07T10:01:40;4.43;;;3.10;;
21243;SDS011;10780;50.942;4.028;2023-05-07T10:04:07;4.75;;;3.00;;
21243;SDS011;10780;50.942;4.028;2023-05-07T10:06:36;4.85;;;3.47;;
21243;SDS011;10780;50.942;4.028;2023-05-07T10:09:03;4.97;;;3.42;;
21243;SDS011;10780;50.942;4.028;2023-05-07T10:11:35;5.78;;;3.22;;
21243;SDS011;10780;50.942;4.028;2023-05-07T10:14:02;6.30;;;3.55;;
21243;SDS011;10780;50.942;4.028;2023-05-07T10:16:31;4.82;;;3.13;;
21243;SDS011;10780;50.942;4.028;2023-05-07T10:19:02;4.70;;;3.13;;
21243;SDS011;10780;50.942;4.028;2023-05-07T10:21:32;3.50;;;3.20;;
21243;SDS011;10780;50.942;4.028;2023-05-07T10:24:04;4.85;;;3.55;;
21243;SDS011;10780;50.942;4.028;2023-05-07T10:26:40;3.35;;;3.05;;
21243;SDS011;10780;50.942;4.028;2023-05-07T10:29:13;4.00;;;3.05;;
21243;SDS011;10780;50.942;4.028;2023-05-07T10:31:52;4.57;;;3.63;;
21243;SDS011;10780;50.942;4.028;2023-05-07T10:34:23;4.78;;;3.55;;
21243;SDS011;10780;50.942;4.028;2023-05-07T10:36:52;5.45;;;3.60;;
21243;SDS011;10780;50.942;4.028;2023-05-07T10:39:20;5.25;;;3.85;;
21243;SDS011;10780;50.942;4.028;2023-05-07T10:41:46;5.13;;;3.55;;
21243;SDS011;10780;50.942;4.028;2023-05-07T10:44:24;5.00;;;3.55;;
21243;SDS011;10780;50.942;4.028;2023-05-07T10:47:34;6.53;;;4.20;;
21243;SDS011;10780;50.942;4.028;2023-05-07T10:52:12;4.63;;;3.58;;
21243;SDS011;10780;50.942;4.028;2023-05-07T10:54:40;5.88;;;3.40;;
21243;SDS011;10780;50.942;4.028;2023-05-07T10:57:32;4.45;;;3.65;;
21243;SDS011;10780;50.942;4.028;2023-05-07T11:05:42;6.35;;;4.65;;
21243;SDS011;10780;50.942;4.028;2023-05-07T11:08:09;8.07;;;4.40;;
21243;SDS011;10780;50.942;4.028;2023-05-07T11:10:51;5.63;;;4.68;;
21243;SDS011;10780;50.942;4.028;2023-05-07T11:13:17;6.00;;;4.82;;
21243;SDS011;10780;50.942;4.028;2023-05-07T11:15:44;5.32;;;4.80;;
21243;SDS011;10780;50.942;4.028;2023-05-07T11:18:12;6.15;;;4.47;;
21243;SDS011;10780;50.942;4.028;2023-05-07T11:26:02;5.32;;;3.67;;
21243;SDS011;10780;50.942;4.028;2023-05-07T11:28:35;5.63;;;3.90;;
21243;SDS011;10780;50.942;4.028;2023-05-07T11:31:03;4.80;;;4.05;;
21243;SDS011;10780;50.942;4.028;2023-05-07T11:33:29;6.00;;;4.30;;
21243;SDS011;10780;50.942;4.028;2023-05-07T11:35:56;7.03;;;4.32;;
21243;SDS011;10780;50.942;4.028;2023-05-07T11:38:22;6.15;;;4.30;;
21243;SDS011;10780;50.942;4.028;2023-05-07T11:40:48;4.32;;;3.92;;
21243;SDS011;10780;50.942;4.028;2023-05-07T11:43:17;6.10;;;3.92;;
21243;SDS011;10780;50.942;4.028;2023-05-07T11:45:46;3.75;;;3.42;;
21243;SDS011;10780;50.942;4.028;2023-05-07T11:48:13;4.28;;;3.75;;
21243;SDS011;10780;50.942;4.028;2023-05-07T11:50:49;3.50;;;3.20;;
21243;SDS011;10780;50.942;4.028;2023-05-07T11:53:37;5.93;;;3.38;;
21243;SDS011;10780;50.942;4.028;2023-05-07T11:56:08;5.55;;;3.80;;
21243;SDS011;10780;50.942;4.028;2023-05-07T11:58:35;3.33;;;3.03;;
21243;SDS011;10780;50.942;4.028;2023-05-07T12:01:01;4.88;;;3.22;;
21243;SDS011;10780;50.942;4.028;2023-05-07T12:03:27;2.97;;;2.67;;
21243;SDS011;10780;50.942;4.028;2023-05-07T12:05:52;3.30;;;3.00;;
21243;SDS011;10780;50.942;4.028;2023-05-07T12:08:18;3.53;;;2.75;;
21243;SDS011;10780;50.942;4.028;2023-05-07T12:10:46;2.78;;;2.53;;
21243;SDS011;10780;50.942;4.028;2023-05-07T12:13:14;3.38;;;2.70;;
21243;SDS011;10780;50.942;4.028;2023-05-07T12:15:43;3.17;;;2.85;;
21243;SDS011;10780;50.942;4.028;2023-05-07T12:18:08;3.70;;;2.72;;
21243;SDS011;10780;50.942;4.028;2023-05-07T12:20:36;2.80;;;2.50;;
21243;SDS011;10780;50.942;4.028;2023-05-07T12:23:02;3.13;;;2.30;;
21243;SDS011;10780;50.942;4.028;2023-05-07T12:25:31;2.70;;;2.50;;
21243;SDS011;10780;50.942;4.028;2023-05-07T12:28:01;2.95;;;2.65;;
21243;SDS011;10780;50.942;4.028;2023-05-07T12:30:28;2.42;;;2.17;;
21243;SDS011;10780;50.942;4.028;2023-05-07T12:32:54;2.60;;;2.40;;
21243;SDS011;10780;50.942;4.028;2023-05-07T12:35:27;3.20;;;2.83;;
21243;SDS011;10780;50.942;4.028;2023-05-07T12:37:57;4.07;;;3.67;;
21243;SDS011;10780;50.942;4.028;2023-05-07T12:40:24;4.15;;;3.55;;
21243;SDS011;10780;50.942;4.028;2023-05-07T12:43:08;3.80;;;3.50;;
21243;SDS011;10780;50.942;4.028;2023-05-07T12:45:44;4.30;;;3.90;;
21243;SDS011;10780;50.942;4.028;2023-05-07T12:48:11;5.65;;;4.60;;
21243;SDS011;10780;50.942;4.028;2023-05-07T12:50:37;6.40;;;5.43;;
21243;SDS011;10780;50.942;4.028;2023-05-07T12:53:03;6.25;;;5.65;;
21243;SDS011;10780;50.942;4.028;2023-05-07T12:55:46;5.10;;;4.70;;
21243;SDS011;10780;50.942;4.028;2023-05-07T12:58:20;5.85;;;5.35;;
21243;SDS011;10780;50.942;4.028;2023-05-07T13:00:52;6.13;;;5.57;;
21243;SDS011;10780;50.942;4.028;2023-05-07T13:03:22;7.70;;;6.15;;
21243;SDS011;10780;50.942;4.028;2023-05-07T13:05:48;6.13;;;5.53;;
21243;SDS011;10780;50.942;4.028;2023-05-07T13:08:25;5.35;;;4.85;;
21243;SDS011;10780;50.942;4.028;2023-05-07T13:10:56;5.70;;;5.15;;
21243;SDS011;10780;50.942;4.028;2023-05-07T13:13:22;5.80;;;5.10;;
21243;SDS011;10780;50.942;4.028;2023-05-07T13:15:48;5.60;;;4.90;;
21243;SDS011;10780;50.942;4.028;2023-05-07T13:18:14;5.22;;;4.72;;
21243;SDS011;10780;50.942;4.028;2023-05-07T13:20:40;7.00;;;5.43;;
21243;SDS011;10780;50.942;4.028;2023-05-07T13:23:05;6.43;;;5.07;;
21243;SDS011;10780;50.942;4.028;2023-05-07T13:25:31;6.93;;;6.10;;
21243;SDS011;10780;50.942;4.028;2023-05-07T13:27:57;6.00;;;5.45;;
21243;SDS011;10780;50.942;4.028;2023-05-07T13:30:23;6.18;;;5.50;;
21243;SDS011;10780;50.942;4.028;2023-05-07T13:32:48;6.22;;;5.65;;
21243;SDS011;10780;50.942;4.028;2023-05-07T13:35:15;5.63;;;5.13;;
21243;SDS011;10780;50.942;4.028;2023-05-07T13:37:41;8.00;;;6.90;;
21243;SDS011;10780;50.942;4.028;2023-05-07T13:40:06;6.88;;;5.90;;
21243;SDS011;10780;50.942;4.028;2023-05-07T13:42:32;6.63;;;5.97;;
21243;SDS011;10780;50.942;4.028;2023-05-07T13:44:58;6.40;;;5.75;;
21243;SDS011;10780;50.942;4.028;2023-05-07T13:47:24;6.40;;;5.43;;
21243;SDS011;10780;50.942;4.028;2023-05-07T13:49:49;6.20;;;5.28;;
21243;SDS011;10780;50.942;4.028;2023-05-07T13:52:15;7.03;;;5.65;;
21243;SDS011;10780;50.942;4.028;2023-05-07T13:54:41;6.15;;;5.65;;
21243;SDS011;10780;50.942;4.028;2023-05-07T13:57:07;5.97;;;5.47;;
21243;SDS011;10780;50.942;4.028;2023-05-07T13:59:33;7.60;;;5.60;;
21243;SDS011;10780;50.942;4.028;2023-05-07T14:01:58;6.65;;;5.22;;
21243;SDS011;10780;50.942;4.028;2023-05-07T14:04:24;6.10;;;5.45;;
21243;SDS011;10780;50.942;4.028;2023-05-07T14:06:50;9.32;;;7.90;;
21243;SDS011;10780;50.942;4.028;2023-05-07T14:09:16;8.63;;;6.47;;
21243;SDS011;10780;50.942;4.028;2023-05-07T14:11:42;6.32;;;5.72;;
21243;SDS011;10780;50.942;4.028;2023-05-07T14:14:07;6.32;;;5.53;;
21243;SDS011;10780;50.942;4.028;2023-05-07T14:16:35;6.63;;;5.95;;
21243;SDS011;10780;50.942;4.028;2023-05-07T14:19:01;8.70;;;6.80;;
21243;SDS011;10780;50.942;4.028;2023-05-07T14:21:27;6.50;;;5.82;;
21243;SDS011;10780;50.942;4.028;2023-05-07T14:23:52;6.60;;;5.93;;
21243;SDS011;10780;50.942;4.028;2023-05-07T14:26:18;7.45;;;6.03;;
21243;SDS011;10780;50.942;4.028;2023-05-07T14:28:45;8.25;;;7.32;;
21243;SDS011;10780;50.942;4.028;2023-05-07T14:31:11;7.80;;;6.47;;
21243;SDS011;10780;50.942;4.028;2023-05-07T14:33:37;7.55;;;6.50;;
21243;SDS011;10780;50.942;4.028;2023-05-07T14:36:03;7.72;;;6.82;;
21243;SDS011;10780;50.942;4.028;2023-05-07T14:38:29;10.20;;;6.97;;
21243;SDS011;10780;50.942;4.028;2023-05-07T14:40:55;10.55;;;7.30;;
21243;SDS011;10780;50.942;4.028;2023-05-07T14:43:21;7.97;;;7.13;;
21243;SDS011;10780;50.942;4.028;2023-05-07T14:45:47;8.68;;;7.00;;
21243;SDS011;10780;50.942;4.028;2023-05-07T14:48:13;9.27;;;6.85;;
21243;SDS011;10780;50.942;4.028;2023-05-07T14:50:40;9.93;;;8.40;;
21243;SDS011;10780;50.942;4.028;2023-05-07T14:53:07;12.57;;;8.98;;